sensor_id;sensor_type;location;lat;lon;timestamp;P1;durP1;ratioP1;P2;durP2;ratioP2
57989;SDS011;58373;51.824;5.564;2023-02-11T00:00:50;17.60;;;9.75;;
57989;SDS011;58373;51.824;5.564;2023-02-11T00:03:16;17.80;;;6.90;;
57989;SDS011;58373;51.824;5.564;2023-02-11T00:05:41;16.40;;;8.90;;
57989;SDS011;58373;51.824;5.564;2023-02-11T00:08:06;15.45;;;7.15;;
57989;SDS011;58373;51.824;5.564;2023-02-11T00:10:32;17.85;;;8.38;;
57989;SDS011;58373;51.824;5.564;2023-02-11T00:12:57;16.52;;;8.88;;
57989;SDS011;58373;51.824;5.564;2023-02-11T00:15:22;18.35;;;6.85;;
57989;SDS011;58373;51.824;5.564;2023-02-11T00:17:47;16.60;;;6.63;;
57989;SDS011;58373;51.824;5.564;2023-02-11T00:20:13;14.88;;;8.00;;
57989;SDS011;58373;51.824;5.564;2023-02-11T00:22:38;15.05;;;7.93;;
57989;SDS011;58373;51.824;5.564;2023-02-11T00:25:04;17.55;;;7.72;;
57989;SDS011;58373;51.824;5.564;2023-02-11T00:27:29;15.82;;;6.25;;
57989;SDS011;58373;51.824;5.564;2023-02-11T00:29:55;18.70;;;9.07;;
57989;SDS011;58373;51.824;5.564;2023-02-11T00:32:20;15.82;;;6.13;;
57989;SDS011;58373;51.824;5.564;2023-02-11T00:34:45;16.60;;;8.45;;
57989;SDS011;58373;51.824;5.564;2023-02-11T00:37:11;16.38;;;7.55;;
57989;SDS011;58373;51.824;5.564;2023-02-11T00:39:37;17.38;;;7.93;;
57989;SDS011;58373;51.824;5.564;2023-02-11T00:42:03;13.82;;;5.75;;
57989;SDS011;58373;51.824;5.564;2023-02-11T00:44:29;16.85;;;7.35;;
57989;SDS011;58373;51.824;5.564;2023-02-11T00:46:54;20.50;;;8.65;;
57989;SDS011;58373;51.824;5.564;2023-02-11T00:49:19;14.30;;;8.20;;
57989;SDS011;58373;51.824;5.564;2023-02-11T00:51:44;18.90;;;8.80;;
57989;SDS011;58373;51.824;5.564;2023-02-11T00:54:10;13.57;;;5.88;;
57989;SDS011;58373;51.824;5.564;2023-02-11T00:56:35;15.98;;;6.43;;
57989;SDS011;58373;51.824;5.564;2023-02-11T00:59:01;15.98;;;8.73;;
57989;SDS011;58373;51.824;5.564;2023-02-11T01:01:26;17.90;;;6.00;;
57989;SDS011;58373;51.824;5.564;2023-02-11T01:03:51;16.80;;;5.57;;
57989;SDS011;58373;51.824;5.564;2023-02-11T01:06:17;15.75;;;5.97;;
57989;SDS011;58373;51.824;5.564;2023-02-11T01:08:43;16.05;;;6.75;;
57989;SDS011;58373;51.824;5.564;2023-02-11T01:11:12;13.48;;;5.35;;
57989;SDS011;58373;51.824;5.564;2023-02-11T01:13:40;13.70;;;5.95;;
57989;SDS011;58373;51.824;5.564;2023-02-11T01:16:06;17.50;;;7.60;;
57989;SDS011;58373;51.824;5.564;2023-02-11T01:18:32;15.40;;;5.35;;
57989;SDS011;58373;51.824;5.564;2023-02-11T01:20:58;14.02;;;5.45;;
57989;SDS011;58373;51.824;5.564;2023-02-11T01:23:24;14.60;;;7.22;;
57989;SDS011;58373;51.824;5.564;2023-02-11T01:25:50;15.07;;;5.70;;
57989;SDS011;58373;51.824;5.564;2023-02-11T01:28:19;21.80;;;7.55;;
57989;SDS011;58373;51.824;5.564;2023-02-11T01:30:47;17.75;;;7.75;;
57989;SDS011;58373;51.824;5.564;2023-02-11T01:33:12;15.45;;;7.07;;
57989;SDS011;58373;51.824;5.564;2023-02-11T01:35:38;15.27;;;5.55;;
57989;SDS011;58373;51.824;5.564;2023-02-11T01:38:05;18.27;;;5.53;;
57989;SDS011;58373;51.824;5.564;2023-02-11T01:40:31;13.38;;;5.28;;
57989;SDS011;58373;51.824;5.564;2023-02-11T01:42:56;14.25;;;4.70;;
57989;SDS011;58373;51.824;5.564;2023-02-11T01:45:46;19.05;;;4.93;;
57989;SDS011;58373;51.824;5.564;2023-02-11T01:48:24;12.98;;;4.85;;
57989;SDS011;58373;51.824;5.564;2023-02-11T01:50:58;17.88;;;6.20;;
57989;SDS011;58373;51.824;5.564;2023-02-11T01:53:27;14.85;;;5.78;;
57989;SDS011;58373;51.824;5.564;2023-02-11T01:56:12;16.95;;;6.45;;
57989;SDS011;58373;51.824;5.564;2023-02-11T01:58:58;14.77;;;4.43;;
57989;SDS011;58373;51.824;5.564;2023-02-11T02:01:30;15.70;;;6.65;;
57989;SDS011;58373;51.824;5.564;2023-02-11T02:03:58;14.63;;;4.93;;
57989;SDS011;58373;51.824;5.564;2023-02-11T02:06:29;12.95;;;5.57;;
57989;SDS011;58373;51.824;5.564;2023-02-11T02:09:04;15.05;;;4.80;;
57989;SDS011;58373;51.824;5.564;2023-02-11T02:11:33;16.63;;;6.25;;
57989;SDS011;58373;51.824;5.564;2023-02-11T02:13:59;17.35;;;5.53;;
57989;SDS011;58373;51.824;5.564;2023-02-11T02:16:28;12.25;;;4.65;;
57989;SDS011;58373;51.824;5.564;2023-02-11T02:22:23;14.93;;;5.20;;
57989;SDS011;58373;51.824;5.564;2023-02-11T02:27:48;12.93;;;5.93;;
57989;SDS011;58373;51.824;5.564;2023-02-11T02:36:13;14.27;;;5.30;;
57989;SDS011;58373;51.824;5.564;2023-02-11T02:38:49;17.45;;;7.13;;
57989;SDS011;58373;51.824;5.564;2023-02-11T02:41:29;15.50;;;6.28;;
57989;SDS011;58373;51.824;5.564;2023-02-11T02:43:56;14.32;;;5.53;;
57989;SDS011;58373;51.824;5.564;2023-02-11T02:46:25;16.13;;;6.43;;
57989;SDS011;58373;51.824;5.564;2023-02-11T02:48:55;15.13;;;4.78;;
57989;SDS011;58373;51.824;5.564;2023-02-11T03:02:34;17.52;;;7.47;;
57989;SDS011;58373;51.824;5.564;2023-02-11T03:05:11;15.73;;;5.97;;
57989;SDS011;58373;51.824;5.564;2023-02-11T03:07:44;16.10;;;6.90;;
57989;SDS011;58373;51.824;5.564;2023-02-11T03:10:18;15.60;;;5.75;;
57989;SDS011;58373;51.824;5.564;2023-02-11T03:12:47;16.63;;;8.18;;
57989;SDS011;58373;51.824;5.564;2023-02-11T03:15:14;15.40;;;6.53;;
57989;SDS011;58373;51.824;5.564;2023-02-11T03:17:43;18.95;;;7.05;;
57989;SDS011;58373;51.824;5.564;2023-02-11T03:20:12;17.10;;;5.40;;
57989;SDS011;58373;51.824;5.564;2023-02-11T03:23:15;15.68;;;5.72;;
57989;SDS011;58373;51.824;5.564;2023-02-11T03:25:40;15.85;;;7.20;;
57989;SDS011;58373;51.824;5.564;2023-02-11T03:28:14;17.05;;;8.63;;
57989;SDS011;58373;51.824;5.564;2023-02-11T03:33:15;14.80;;;6.18;;
57989;SDS011;58373;51.824;5.564;2023-02-11T03:35:52;13.32;;;5.43;;
57989;SDS011;58373;51.824;5.564;2023-02-11T03:38:38;16.25;;;7.47;;
57989;SDS011;58373;51.824;5.564;2023-02-11T03:41:11;17.08;;;6.82;;
57989;SDS011;58373;51.824;5.564;2023-02-11T03:43:41;14.70;;;6.38;;
57989;SDS011;58373;51.824;5.564;2023-02-11T03:46:11;18.17;;;6.88;;
57989;SDS011;58373;51.824;5.564;2023-02-11T03:48:43;18.33;;;9.82;;
57989;SDS011;58373;51.824;5.564;2023-02-11T03:51:12;17.58;;;8.65;;
57989;SDS011;58373;51.824;5.564;2023-02-11T03:53:40;18.35;;;7.25;;
57989;SDS011;58373;51.824;5.564;2023-02-11T03:56:09;19.67;;;8.57;;
57989;SDS011;58373;51.824;5.564;2023-02-11T03:58:39;17.77;;;6.47;;
57989;SDS011;58373;51.824;5.564;2023-02-11T04:01:04;15.65;;;7.32;;
57989;SDS011;58373;51.824;5.564;2023-02-11T04:03:33;14.05;;;6.57;;
57989;SDS011;58373;51.824;5.564;2023-02-11T04:05:59;18.60;;;10.43;;
57989;SDS011;58373;51.824;5.564;2023-02-11T04:08:24;17.30;;;7.55;;
57989;SDS011;58373;51.824;5.564;2023-02-11T04:10:49;19.50;;;8.48;;
57989;SDS011;58373;51.824;5.564;2023-02-11T04:13:14;18.50;;;8.07;;
57989;SDS011;58373;51.824;5.564;2023-02-11T04:15:40;20.38;;;8.88;;
57989;SDS011;58373;51.824;5.564;2023-02-11T04:18:05;19.95;;;7.80;;
57989;SDS011;58373;51.824;5.564;2023-02-11T04:20:30;17.13;;;7.60;;
57989;SDS011;58373;51.824;5.564;2023-02-11T04:22:56;16.58;;;8.05;;
57989;SDS011;58373;51.824;5.564;2023-02-11T04:25:21;20.67;;;9.93;;
57989;SDS011;58373;51.824;5.564;2023-02-11T04:27:46;19.20;;;8.10;;
57989;SDS011;58373;51.824;5.564;2023-02-11T04:30:12;19.52;;;10.77;;
57989;SDS011;58373;51.824;5.564;2023-02-11T04:32:37;19.83;;;10.25;;
57989;SDS011;58373;51.824;5.564;2023-02-11T04:35:03;21.88;;;11.65;;
57989;SDS011;58373;51.824;5.564;2023-02-11T04:37:28;18.08;;;8.85;;
57989;SDS011;58373;51.824;5.564;2023-02-11T04:39:54;22.92;;;11.52;;
57989;SDS011;58373;51.824;5.564;2023-02-11T04:42:19;19.88;;;10.80;;
57989;SDS011;58373;51.824;5.564;2023-02-11T04:44:44;21.55;;;11.80;;
57989;SDS011;58373;51.824;5.564;2023-02-11T04:47:10;18.30;;;8.18;;
57989;SDS011;58373;51.824;5.564;2023-02-11T04:49:37;22.45;;;8.63;;
57989;SDS011;58373;51.824;5.564;2023-02-11T04:52:03;27.02;;;12.32;;
57989;SDS011;58373;51.824;5.564;2023-02-11T04:54:29;18.42;;;9.25;;
57989;SDS011;58373;51.824;5.564;2023-02-11T04:56:54;21.88;;;8.95;;
57989;SDS011;58373;51.824;5.564;2023-02-11T04:59:19;24.00;;;11.13;;
57989;SDS011;58373;51.824;5.564;2023-02-11T05:01:44;21.52;;;12.82;;
57989;SDS011;58373;51.824;5.564;2023-02-11T05:04:10;21.10;;;8.95;;
57989;SDS011;58373;51.824;5.564;2023-02-11T05:06:36;20.00;;;8.75;;
57989;SDS011;58373;51.824;5.564;2023-02-11T05:09:03;20.98;;;9.70;;
57989;SDS011;58373;51.824;5.564;2023-02-11T05:11:28;17.83;;;8.38;;
57989;SDS011;58373;51.824;5.564;2023-02-11T05:13:54;23.42;;;11.88;;
57989;SDS011;58373;51.824;5.564;2023-02-11T05:16:19;22.30;;;12.10;;
57989;SDS011;58373;51.824;5.564;2023-02-11T05:18:44;21.25;;;11.13;;
57989;SDS011;58373;51.824;5.564;2023-02-11T05:21:14;21.67;;;9.57;;
57989;SDS011;58373;51.824;5.564;2023-02-11T05:23:41;18.73;;;9.35;;
57989;SDS011;58373;51.824;5.564;2023-02-11T05:26:07;27.95;;;10.55;;
57989;SDS011;58373;51.824;5.564;2023-02-11T05:28:33;27.75;;;13.18;;
57989;SDS011;58373;51.824;5.564;2023-02-11T05:30:59;25.20;;;14.30;;
57989;SDS011;58373;51.824;5.564;2023-02-11T05:33:25;25.67;;;13.45;;
57989;SDS011;58373;51.824;5.564;2023-02-11T05:35:50;23.08;;;11.98;;
57989;SDS011;58373;51.824;5.564;2023-02-11T05:38:16;24.13;;;11.05;;
57989;SDS011;58373;51.824;5.564;2023-02-11T05:40:41;24.98;;;11.18;;
57989;SDS011;58373;51.824;5.564;2023-02-11T05:43:06;26.77;;;15.38;;
57989;SDS011;58373;51.824;5.564;2023-02-11T05:45:32;23.25;;;13.18;;
57989;SDS011;58373;51.824;5.564;2023-02-11T05:47:58;30.15;;;15.52;;
57989;SDS011;58373;51.824;5.564;2023-02-11T05:50:24;21.50;;;11.10;;
57989;SDS011;58373;51.824;5.564;2023-02-11T05:52:49;25.50;;;11.13;;
57989;SDS011;58373;51.824;5.564;2023-02-11T05:55:14;20.58;;;10.75;;
57989;SDS011;58373;51.824;5.564;2023-02-11T05:57:40;25.48;;;12.68;;
57989;SDS011;58373;51.824;5.564;2023-02-11T06:00:06;24.08;;;10.88;;
57989;SDS011;58373;51.824;5.564;2023-02-11T06:02:32;22.05;;;9.98;;
57989;SDS011;58373;51.824;5.564;2023-02-11T06:04:58;27.17;;;14.52;;
57989;SDS011;58373;51.824;5.564;2023-02-11T06:07:23;34.03;;;15.63;;
57989;SDS011;58373;51.824;5.564;2023-02-11T06:09:49;28.33;;;12.35;;
57989;SDS011;58373;51.824;5.564;2023-02-11T06:12:14;26.38;;;14.88;;
57989;SDS011;58373;51.824;5.564;2023-02-11T06:14:40;25.88;;;11.38;;
57989;SDS011;58373;51.824;5.564;2023-02-11T06:17:05;29.13;;;10.48;;
57989;SDS011;58373;51.824;5.564;2023-02-11T06:19:31;28.95;;;14.85;;
57989;SDS011;58373;51.824;5.564;2023-02-11T06:21:56;26.45;;;14.35;;
57989;SDS011;58373;51.824;5.564;2023-02-11T06:24:22;24.40;;;15.13;;
57989;SDS011;58373;51.824;5.564;2023-02-11T06:26:47;24.45;;;15.05;;
57989;SDS011;58373;51.824;5.564;2023-02-11T06:29:13;24.98;;;11.38;;
57989;SDS011;58373;51.824;5.564;2023-02-11T06:31:38;27.38;;;14.00;;
57989;SDS011;58373;51.824;5.564;2023-02-11T06:34:04;26.38;;;11.13;;
57989;SDS011;58373;51.824;5.564;2023-02-11T06:36:30;25.58;;;12.48;;
57989;SDS011;58373;51.824;5.564;2023-02-11T06:38:56;23.35;;;10.73;;
57989;SDS011;58373;51.824;5.564;2023-02-11T06:41:21;30.73;;;14.57;;
57989;SDS011;58373;51.824;5.564;2023-02-11T06:43:47;29.98;;;16.88;;
57989;SDS011;58373;51.824;5.564;2023-02-11T06:46:13;31.52;;;16.83;;
57989;SDS011;58373;51.824;5.564;2023-02-11T06:48:39;26.17;;;11.38;;
57989;SDS011;58373;51.824;5.564;2023-02-11T06:51:05;28.00;;;16.13;;
57989;SDS011;58373;51.824;5.564;2023-02-11T06:53:42;28.20;;;13.05;;
57989;SDS011;58373;51.824;5.564;2023-02-11T06:56:16;34.10;;;20.58;;
57989;SDS011;58373;51.824;5.564;2023-02-11T06:58:43;30.17;;;16.52;;
57989;SDS011;58373;51.824;5.564;2023-02-11T07:01:13;28.42;;;14.50;;
57989;SDS011;58373;51.824;5.564;2023-02-11T07:03:40;28.05;;;13.48;;
57989;SDS011;58373;51.824;5.564;2023-02-11T07:06:11;25.35;;;12.80;;
57989;SDS011;58373;51.824;5.564;2023-02-11T07:08:39;32.72;;;17.92;;
57989;SDS011;58373;51.824;5.564;2023-02-11T07:11:10;28.42;;;13.82;;
57989;SDS011;58373;51.824;5.564;2023-02-11T07:13:37;34.35;;;14.57;;
57989;SDS011;58373;51.824;5.564;2023-02-11T07:16:06;31.50;;;16.98;;
57989;SDS011;58373;51.824;5.564;2023-02-11T07:18:33;32.78;;;15.25;;
57989;SDS011;58373;51.824;5.564;2023-02-11T07:20:59;30.55;;;14.65;;
57989;SDS011;58373;51.824;5.564;2023-02-11T07:23:28;32.67;;;18.00;;
57989;SDS011;58373;51.824;5.564;2023-02-11T07:25:53;31.73;;;13.55;;
57989;SDS011;58373;51.824;5.564;2023-02-11T07:28:18;31.33;;;14.63;;
57989;SDS011;58373;51.824;5.564;2023-02-11T07:30:44;31.25;;;18.30;;
57989;SDS011;58373;51.824;5.564;2023-02-11T07:33:09;37.33;;;18.20;;
57989;SDS011;58373;51.824;5.564;2023-02-11T07:35:34;37.08;;;18.52;;
57989;SDS011;58373;51.824;5.564;2023-02-11T07:38:00;35.25;;;19.85;;
57989;SDS011;58373;51.824;5.564;2023-02-11T07:40:25;30.40;;;15.50;;
57989;SDS011;58373;51.824;5.564;2023-02-11T07:42:50;33.92;;;16.27;;
57989;SDS011;58373;51.824;5.564;2023-02-11T07:45:16;38.42;;;21.33;;
57989;SDS011;58373;51.824;5.564;2023-02-11T07:47:41;34.88;;;21.08;;
57989;SDS011;58373;51.824;5.564;2023-02-11T07:50:07;43.33;;;21.63;;
57989;SDS011;58373;51.824;5.564;2023-02-11T07:52:33;36.72;;;17.90;;
57989;SDS011;58373;51.824;5.564;2023-02-11T07:54:58;32.13;;;15.77;;
57989;SDS011;58373;51.824;5.564;2023-02-11T07:57:23;32.10;;;16.65;;
57989;SDS011;58373;51.824;5.564;2023-02-11T07:59:49;39.65;;;24.17;;
57989;SDS011;58373;51.824;5.564;2023-02-11T08:02:14;41.47;;;20.75;;
57989;SDS011;58373;51.824;5.564;2023-02-11T08:04:39;41.85;;;22.00;;
57989;SDS011;58373;51.824;5.564;2023-02-11T08:07:04;38.03;;;21.40;;
57989;SDS011;58373;51.824;5.564;2023-02-11T08:09:30;42.85;;;27.75;;
57989;SDS011;58373;51.824;5.564;2023-02-11T08:11:56;33.25;;;17.92;;
57989;SDS011;58373;51.824;5.564;2023-02-11T08:14:21;35.25;;;16.65;;
57989;SDS011;58373;51.824;5.564;2023-02-11T08:16:49;45.85;;;25.63;;
57989;SDS011;58373;51.824;5.564;2023-02-11T08:19:15;46.63;;;25.10;;
57989;SDS011;58373;51.824;5.564;2023-02-11T08:21:41;42.40;;;22.42;;
57989;SDS011;58373;51.824;5.564;2023-02-11T08:24:07;46.05;;;28.38;;
57989;SDS011;58373;51.824;5.564;2023-02-11T08:26:33;45.60;;;24.05;;
57989;SDS011;58373;51.824;5.564;2023-02-11T08:29:00;50.75;;;25.77;;
57989;SDS011;58373;51.824;5.564;2023-02-11T08:31:29;55.83;;;24.13;;
57989;SDS011;58373;51.824;5.564;2023-02-11T08:33:58;42.10;;;17.48;;
57989;SDS011;58373;51.824;5.564;2023-02-11T08:36:27;55.38;;;30.52;;
57989;SDS011;58373;51.824;5.564;2023-02-11T08:38:55;45.38;;;19.48;;
57989;SDS011;58373;51.824;5.564;2023-02-11T08:43:48;57.50;;;25.45;;
57989;SDS011;58373;51.824;5.564;2023-02-11T08:46:15;41.60;;;19.88;;
57989;SDS011;58373;51.824;5.564;2023-02-11T08:48:41;46.70;;;19.42;;
57989;SDS011;58373;51.824;5.564;2023-02-11T08:51:08;41.83;;;18.58;;
57989;SDS011;58373;51.824;5.564;2023-02-11T08:53:35;51.33;;;19.70;;
57989;SDS011;58373;51.824;5.564;2023-02-11T08:56:01;45.97;;;19.90;;
57989;SDS011;58373;51.824;5.564;2023-02-11T08:58:27;57.40;;;30.02;;
57989;SDS011;58373;51.824;5.564;2023-02-11T09:00:52;51.95;;;27.35;;
57989;SDS011;58373;51.824;5.564;2023-02-11T09:03:18;49.15;;;25.55;;
57989;SDS011;58373;51.824;5.564;2023-02-11T09:05:44;44.08;;;18.50;;
57989;SDS011;58373;51.824;5.564;2023-02-11T09:08:11;40.97;;;19.30;;
57989;SDS011;58373;51.824;5.564;2023-02-11T09:10:37;46.22;;;26.50;;
57989;SDS011;58373;51.824;5.564;2023-02-11T09:13:04;35.30;;;17.45;;
57989;SDS011;58373;51.824;5.564;2023-02-11T09:15:30;53.38;;;33.00;;
57989;SDS011;58373;51.824;5.564;2023-02-11T09:17:55;45.28;;;20.55;;
57989;SDS011;58373;51.824;5.564;2023-02-11T09:20:21;42.38;;;19.15;;
57989;SDS011;58373;51.824;5.564;2023-02-11T09:22:47;44.58;;;20.05;;
57989;SDS011;58373;51.824;5.564;2023-02-11T09:25:12;47.00;;;29.27;;
57989;SDS011;58373;51.824;5.564;2023-02-11T09:27:38;50.15;;;29.42;;
57989;SDS011;58373;51.824;5.564;2023-02-11T09:30:03;45.13;;;26.48;;
57989;SDS011;58373;51.824;5.564;2023-02-11T09:32:29;44.78;;;26.92;;
57989;SDS011;58373;51.824;5.564;2023-02-11T09:34:54;45.88;;;28.10;;
57989;SDS011;58373;51.824;5.564;2023-02-11T09:37:20;42.92;;;19.27;;
57989;SDS011;58373;51.824;5.564;2023-02-11T09:39:45;50.45;;;31.13;;
57989;SDS011;58373;51.824;5.564;2023-02-11T09:44:50;41.20;;;19.27;;
57989;SDS011;58373;51.824;5.564;2023-02-11T09:47:32;44.00;;;27.85;;
57989;SDS011;58373;51.824;5.564;2023-02-11T09:50:04;43.55;;;25.95;;
57989;SDS011;58373;51.824;5.564;2023-02-11T09:55:21;46.05;;;28.25;;
57989;SDS011;58373;51.824;5.564;2023-02-11T09:57:50;40.83;;;27.00;;
57989;SDS011;58373;51.824;5.564;2023-02-11T10:00:17;41.03;;;24.15;;
57989;SDS011;58373;51.824;5.564;2023-02-11T10:05:41;41.78;;;23.92;;
57989;SDS011;58373;51.824;5.564;2023-02-11T10:08:19;35.40;;;17.85;;
57989;SDS011;58373;51.824;5.564;2023-02-11T10:10:52;34.53;;;23.20;;
57989;SDS011;58373;51.824;5.564;2023-02-11T10:16:21;35.92;;;21.55;;
57989;SDS011;58373;51.824;5.564;2023-02-11T10:24:09;36.80;;;25.02;;
57989;SDS011;58373;51.824;5.564;2023-02-11T10:26:36;36.83;;;25.02;;
57989;SDS011;58373;51.824;5.564;2023-02-11T10:29:05;34.50;;;19.35;;
57989;SDS011;58373;51.824;5.564;2023-02-11T10:31:42;28.52;;;15.13;;
57989;SDS011;58373;51.824;5.564;2023-02-11T10:34:10;34.95;;;25.33;;
57989;SDS011;58373;51.824;5.564;2023-02-11T10:36:38;37.10;;;23.40;;
57989;SDS011;58373;51.824;5.564;2023-02-11T10:39:10;35.38;;;25.15;;
57989;SDS011;58373;51.824;5.564;2023-02-11T10:41:37;33.40;;;19.48;;
57989;SDS011;58373;51.824;5.564;2023-02-11T10:44:06;33.30;;;20.33;;
57989;SDS011;58373;51.824;5.564;2023-02-11T10:46:32;29.15;;;19.42;;
57989;SDS011;58373;51.824;5.564;2023-02-11T10:49:04;36.67;;;24.50;;
57989;SDS011;58373;51.824;5.564;2023-02-11T10:51:30;35.00;;;26.05;;
57989;SDS011;58373;51.824;5.564;2023-02-11T10:56:33;35.15;;;21.60;;
57989;SDS011;58373;51.824;5.564;2023-02-11T10:59:13;33.28;;;23.98;;
57989;SDS011;58373;51.824;5.564;2023-02-11T11:01:48;32.22;;;15.18;;
57989;SDS011;58373;51.824;5.564;2023-02-11T11:06:53;33.67;;;21.40;;
57989;SDS011;58373;51.824;5.564;2023-02-11T11:09:29;36.63;;;25.42;;
57989;SDS011;58373;51.824;5.564;2023-02-11T11:12:22;32.80;;;20.00;;
57989;SDS011;58373;51.824;5.564;2023-02-11T11:14:53;32.58;;;22.27;;
57989;SDS011;58373;51.824;5.564;2023-02-11T11:17:19;34.60;;;20.83;;
57989;SDS011;58373;51.824;5.564;2023-02-11T11:19:45;30.75;;;19.88;;
57989;SDS011;58373;51.824;5.564;2023-02-11T11:22:17;31.90;;;24.48;;
57989;SDS011;58373;51.824;5.564;2023-02-11T11:24:45;30.63;;;21.92;;
57989;SDS011;58373;51.824;5.564;2023-02-11T11:27:18;32.22;;;20.17;;
57989;SDS011;58373;51.824;5.564;2023-02-11T11:29:56;34.42;;;25.23;;
57989;SDS011;58373;51.824;5.564;2023-02-11T11:32:26;33.90;;;24.92;;
57989;SDS011;58373;51.824;5.564;2023-02-11T11:34:59;29.88;;;20.63;;
57989;SDS011;58373;51.824;5.564;2023-02-11T11:37:30;25.83;;;13.88;;
57989;SDS011;58373;51.824;5.564;2023-02-11T11:40:06;29.73;;;23.70;;
57989;SDS011;58373;51.824;5.564;2023-02-11T11:42:34;33.30;;;24.60;;
57989;SDS011;58373;51.824;5.564;2023-02-11T11:47:38;32.72;;;23.05;;
57989;SDS011;58373;51.824;5.564;2023-02-11T11:50:25;31.85;;;19.92;;
57989;SDS011;58373;51.824;5.564;2023-02-11T11:55:33;30.13;;;23.80;;
57989;SDS011;58373;51.824;5.564;2023-02-11T11:58:03;27.30;;;12.93;;
57989;SDS011;58373;51.824;5.564;2023-02-11T12:00:43;29.55;;;21.63;;
57989;SDS011;58373;51.824;5.564;2023-02-11T12:05:59;30.38;;;23.45;;
57989;SDS011;58373;51.824;5.564;2023-02-11T12:08:47;27.83;;;20.20;;
57989;SDS011;58373;51.824;5.564;2023-02-11T12:11:19;28.75;;;21.38;;
57989;SDS011;58373;51.824;5.564;2023-02-11T12:31:16;26.58;;;19.95;;
57989;SDS011;58373;51.824;5.564;2023-02-11T12:34:09;27.90;;;23.42;;
57989;SDS011;58373;51.824;5.564;2023-02-11T12:48:07;24.25;;;20.42;;
57989;SDS011;58373;51.824;5.564;2023-02-11T12:51:03;24.15;;;17.10;;
57989;SDS011;58373;51.824;5.564;2023-02-11T12:53:51;25.33;;;19.83;;
57989;SDS011;58373;51.824;5.564;2023-02-11T12:56:44;23.25;;;16.00;;
57989;SDS011;58373;51.824;5.564;2023-02-11T12:59:28;21.45;;;15.07;;
57989;SDS011;58373;51.824;5.564;2023-02-11T13:02:03;26.30;;;20.57;;
57989;SDS011;58373;51.824;5.564;2023-02-11T13:04:40;25.92;;;18.63;;
57989;SDS011;58373;51.824;5.564;2023-02-11T13:07:23;25.75;;;18.20;;
57989;SDS011;58373;51.824;5.564;2023-02-11T13:09:59;27.40;;;22.67;;
57989;SDS011;58373;51.824;5.564;2023-02-11T13:12:31;26.88;;;23.23;;
57989;SDS011;58373;51.824;5.564;2023-02-11T13:15:18;26.90;;;19.10;;
57989;SDS011;58373;51.824;5.564;2023-02-11T13:17:58;27.48;;;22.45;;
57989;SDS011;58373;51.824;5.564;2023-02-11T13:25:52;28.17;;;22.65;;
57989;SDS011;58373;51.824;5.564;2023-02-11T13:31:22;24.35;;;12.60;;
57989;SDS011;58373;51.824;5.564;2023-02-11T13:33:51;26.95;;;24.05;;
57989;SDS011;58373;51.824;5.564;2023-02-11T13:36:17;29.65;;;25.40;;
57989;SDS011;58373;51.824;5.564;2023-02-11T13:38:51;27.17;;;23.58;;
57989;SDS011;58373;51.824;5.564;2023-02-11T13:41:33;29.50;;;24.55;;
57989;SDS011;58373;51.824;5.564;2023-02-11T13:47:06;28.50;;;23.20;;
57989;SDS011;58373;51.824;5.564;2023-02-11T13:49:30;26.25;;;22.35;;
57989;SDS011;58373;51.824;5.564;2023-02-11T13:51:59;25.50;;;18.90;;
57989;SDS011;58373;51.824;5.564;2023-02-11T13:54:28;23.88;;;16.20;;
57989;SDS011;58373;51.824;5.564;2023-02-11T13:59:54;29.10;;;23.60;;
57989;SDS011;58373;51.824;5.564;2023-02-11T14:02:26;27.25;;;21.63;;
57989;SDS011;58373;51.824;5.564;2023-02-11T14:08:13;25.92;;;23.13;;
57989;SDS011;58373;51.824;5.564;2023-02-11T14:10:59;26.67;;;20.80;;
57989;SDS011;58373;51.824;5.564;2023-02-11T14:13:30;29.07;;;23.93;;
57989;SDS011;58373;51.824;5.564;2023-02-11T14:23:52;28.08;;;23.02;;
57989;SDS011;58373;51.824;5.564;2023-02-11T14:35:01;26.67;;;22.67;;
57989;SDS011;58373;51.824;5.564;2023-02-11T14:37:37;26.67;;;23.55;;
57989;SDS011;58373;51.824;5.564;2023-02-11T14:42:46;25.52;;;22.58;;
57989;SDS011;58373;51.824;5.564;2023-02-11T14:45:15;27.38;;;22.38;;
57989;SDS011;58373;51.824;5.564;2023-02-11T14:47:45;26.95;;;20.38;;
57989;SDS011;58373;51.824;5.564;2023-02-11T14:50:18;23.70;;;20.85;;
57989;SDS011;58373;51.824;5.564;2023-02-11T14:52:50;27.10;;;22.65;;
57989;SDS011;58373;51.824;5.564;2023-02-11T15:00:57;25.70;;;22.45;;
57989;SDS011;58373;51.824;5.564;2023-02-11T15:03:49;24.92;;;21.90;;
57989;SDS011;58373;51.824;5.564;2023-02-11T15:06:28;25.67;;;21.60;;
57989;SDS011;58373;51.824;5.564;2023-02-11T15:09:04;26.67;;;21.73;;
57989;SDS011;58373;51.824;5.564;2023-02-11T15:11:37;25.70;;;21.90;;
57989;SDS011;58373;51.824;5.564;2023-02-11T15:14:06;25.77;;;22.58;;
57989;SDS011;58373;51.824;5.564;2023-02-11T15:16:33;25.50;;;21.67;;
57989;SDS011;58373;51.824;5.564;2023-02-11T15:19:05;24.60;;;21.52;;
57989;SDS011;58373;51.824;5.564;2023-02-11T15:21:32;25.38;;;21.65;;
57989;SDS011;58373;51.824;5.564;2023-02-11T15:26:26;27.13;;;19.63;;
57989;SDS011;58373;51.824;5.564;2023-02-11T15:28:52;29.60;;;24.08;;
57989;SDS011;58373;51.824;5.564;2023-02-11T15:31:22;25.52;;;22.70;;
57989;SDS011;58373;51.824;5.564;2023-02-11T15:33:48;25.63;;;22.80;;
57989;SDS011;58373;51.824;5.564;2023-02-11T15:36:15;25.30;;;21.55;;
57989;SDS011;58373;51.824;5.564;2023-02-11T15:38:41;22.88;;;18.00;;
57989;SDS011;58373;51.824;5.564;2023-02-11T15:41:07;25.40;;;21.63;;
57989;SDS011;58373;51.824;5.564;2023-02-11T15:43:42;26.10;;;22.60;;
57989;SDS011;58373;51.824;5.564;2023-02-11T15:46:09;26.17;;;22.90;;
57989;SDS011;58373;51.824;5.564;2023-02-11T15:48:43;24.25;;;20.25;;
57989;SDS011;58373;51.824;5.564;2023-02-11T15:51:16;24.33;;;18.95;;
57989;SDS011;58373;51.824;5.564;2023-02-11T15:53:42;24.52;;;20.45;;
57989;SDS011;58373;51.824;5.564;2023-02-11T15:58:58;24.48;;;21.63;;
57989;SDS011;58373;51.824;5.564;2023-02-11T16:01:33;25.80;;;22.27;;
57989;SDS011;58373;51.824;5.564;2023-02-11T16:04:01;25.40;;;22.08;;
57989;SDS011;58373;51.824;5.564;2023-02-11T16:06:39;26.00;;;23.02;;
57989;SDS011;58373;51.824;5.564;2023-02-11T16:17:08;27.55;;;22.38;;
57989;SDS011;58373;51.824;5.564;2023-02-11T16:19:41;26.27;;;20.80;;
57989;SDS011;58373;51.824;5.564;2023-02-11T16:22:09;26.83;;;22.65;;
57989;SDS011;58373;51.824;5.564;2023-02-11T16:24:39;28.30;;;23.65;;
57989;SDS011;58373;51.824;5.564;2023-02-11T16:29:52;27.90;;;21.17;;
57989;SDS011;58373;51.824;5.564;2023-02-11T16:32:19;28.98;;;24.60;;
57989;SDS011;58373;51.824;5.564;2023-02-11T16:34:46;27.45;;;20.98;;
57989;SDS011;58373;51.824;5.564;2023-02-11T16:37:11;30.95;;;24.55;;
57989;SDS011;58373;51.824;5.564;2023-02-11T16:39:37;27.83;;;24.50;;
57989;SDS011;58373;51.824;5.564;2023-02-11T16:42:02;29.90;;;21.52;;
57989;SDS011;58373;51.824;5.564;2023-02-11T16:44:29;28.30;;;18.35;;
57989;SDS011;58373;51.824;5.564;2023-02-11T16:46:55;29.08;;;24.80;;
57989;SDS011;58373;51.824;5.564;2023-02-11T16:51:54;26.60;;;23.33;;
57989;SDS011;58373;51.824;5.564;2023-02-11T16:54:22;30.50;;;23.85;;
57989;SDS011;58373;51.824;5.564;2023-02-11T16:56:48;28.02;;;19.73;;
57989;SDS011;58373;51.824;5.564;2023-02-11T16:59:13;28.40;;;23.17;;
57989;SDS011;58373;51.824;5.564;2023-02-11T17:01:40;29.75;;;20.40;;
57989;SDS011;58373;51.824;5.564;2023-02-11T17:04:09;29.30;;;23.57;;